Time;durP1;ratioP1;P1;durP2;ratioP2;P2;SDS_P1;SDS_P2;PMS_P1;PMS_P2;Temp;Humidity;BMP_temperature;BMP_pressure;BME280_temperature;BME280_humidity;BME280_pressure;Samples;Min_cycle;Max_cycle;Signal;HPM_P1;HPM_P2
2021/07/29 00:01:49;;;;;;;;;2.00;2.00;;;;;19.44;46.46;100928.69;5082267;27;45294;-62
2021/07/29 00:04:14;;;;;;;;;4.50;3.00;;;;;19.39;46.77;100922.72;5082195;27;48996;-62
2021/07/29 00:06:40;;;;;;;;;3.00;3.00;;;;;19.38;46.55;100925.47;5082121;27;45215;-62
2021/07/29 00:09:05;;;;;;;;;3.50;3.00;;;;;19.36;46.46;100922.00;5071161;28;45268;-62
2021/07/29 00:11:30;;;;;;;;;4.25;4.25;;;;;19.33;47.09;100918.56;5079955;27;45224;-62
2021/07/29 00:13:58;;;;;;;;;4.75;3.50;;;;;19.29;46.59;100929.44;5082073;27;45461;-61
2021/07/29 00:16:28;;;;;;;;;3.00;3.00;;;;;19.28;46.81;100925.03;5081791;27;45522;-61
2021/07/29 00:19:04;;;;;;;;;2.75;2.75;;;;;19.27;47.00;100921.53;5082060;27;45296;-61
2021/07/29 00:21:33;;;;;;;;;3.75;3.00;;;;;19.24;46.97;100916.34;5068740;28;45236;-61
2021/07/29 00:23:59;;;;;;;;;2.00;2.00;;;;;19.23;46.57;100916.41;5113857;27;46145;-61
2021/07/29 00:26:25;;;;;;;;;2.00;2.00;;;;;19.25;47.04;100919.88;5081848;27;45428;-61
2021/07/29 00:28:50;;;;;;;;;5.75;4.00;;;;;19.22;47.29;100918.22;5097678;27;45401;-62
2021/07/29 00:31:16;;;;;;;;;3.00;3.00;;;;;19.19;46.94;100933.47;5081621;27;45519;-61
2021/07/29 00:33:41;;;;;;;;;5.00;3.25;;;;;19.16;47.34;100916.69;5081714;27;46052;-61
2021/07/29 00:36:06;;;;;;;;;2.50;2.50;;;;;19.14;46.89;100913.28;5081921;28;45409;-61
2021/07/29 00:38:33;;;;;;;;;3.50;3.50;;;;;19.15;47.38;100916.78;5081815;27;45973;-61
2021/07/29 00:40:58;;;;;;;;;4.00;3.00;;;;;19.15;47.38;100916.78;5081724;27;45247;-61
2021/07/29 00:43:23;;;;;;;;;5.00;5.00;;;;;19.13;47.30;100918.63;5081380;28;46070;-61
2021/07/29 00:45:49;;;;;;;;;2.75;2.75;;;;;19.11;47.68;100915.22;5081414;28;45274;-61
2021/07/29 00:48:18;;;;;;;;;3.75;3.75;;;;;19.08;47.44;100916.22;5080300;27;45149;-61
2021/07/29 00:50:44;;;;;;;;;4.50;3.00;;;;;19.05;47.46;100915.50;5067860;28;45377;-61
2021/07/29 00:53:10;;;;;;;;;3.75;3.75;;;;;19.01;47.80;100917.44;5081512;28;45394;-61
2021/07/29 00:55:35;;;;;;;;;3.50;3.00;;;;;19.03;47.52;100920.91;5097075;27;45235;-60
2021/07/29 00:58:01;;;;;;;;;4.00;2.00;;;;;19.00;47.44;100919.25;5069393;27;45483;-62
2021/07/29 01:00:26;;;;;;;;;3.25;3.25;;;;;18.98;47.97;100909.56;5080078;28;45473;-61
2021/07/29 01:02:53;;;;;;;;;4.00;4.00;;;;;18.96;48.22;100922.13;5081318;28;45550;-61
2021/07/29 01:05:20;;;;;;;;;5.00;3.00;;;;;18.93;48.03;100924.91;5079916;28;45703;-61
2021/07/29 01:07:45;;;;;;;;;3.75;3.75;;;;;18.89;47.85;100916.16;5081491;27;46844;-61
2021/07/29 01:10:11;;;;;;;;;5.00;4.00;;;;;18.89;48.20;100917.97;5080995;27;45683;-61
2021/07/29 01:12:36;;;;;;;;;3.00;3.00;;;;;18.85;48.31;100917.25;5080861;28;45320;-61
2021/07/29 01:15:03;;;;;;;;;3.25;3.25;;;;;18.83;48.27;100919.97;5080823;28;45449;-61
2021/07/29 01:17:31;;;;;;;;;3.00;3.00;;;;;18.85;48.18;100925.22;5081160;27;45534;-61
2021/07/29 01:19:56;;;;;;;;;4.25;3.75;;;;;18.84;48.39;100920.84;5080765;28;45424;-61
2021/07/29 01:22:22;;;;;;;;;4.00;2.00;;;;;18.82;48.13;100922.72;5079456;28;47532;-60
2021/07/29 01:24:47;;;;;;;;;3.25;3.00;;;;;18.80;48.87;100930.78;5081250;27;45247;-60
2021/07/29 01:27:17;;;;;;;;;5.00;4.00;;;;;18.76;48.78;100926.50;5113703;27;45270;-60
2021/07/29 01:29:42;;;;;;;;;3.50;3.00;;;;;18.74;48.72;100931.06;5078720;28;45384;-60
2021/07/29 01:32:07;;;;;;;;;4.00;4.00;;;;;18.69;48.82;100933.03;5080581;28;46123;-60
2021/07/29 01:34:33;;;;;;;;;3.25;3.25;;;;;18.63;48.79;100933.34;5080591;28;45339;-60
2021/07/29 01:36:58;;;;;;;;;3.00;3.00;;;;;18.63;48.80;100930.69;5080797;27;45311;-60
2021/07/29 01:39:24;;;;;;;;;1.25;1.25;;;;;18.59;48.70;100929.94;5079464;28;45431;-60
2021/07/29 01:41:49;;;;;;;;;2.50;2.00;;;;;18.58;49.04;100937.97;5080415;27;45395;-60
2021/07/29 01:44:14;;;;;;;;;3.25;3.25;;;;;18.58;49.06;100932.66;5080518;27;45266;-60
2021/07/29 01:46:40;;;;;;;;;5.00;2.75;;;;;18.55;49.25;100933.66;5079103;27;45297;-60
2021/07/29 01:49:05;;;;;;;;;4.00;3.50;;;;;18.51;49.06;100932.06;5078549;27;45446;-60
2021/07/29 01:51:30;;;;;;;;;3.50;2.50;;;;;18.50;49.14;100935.66;5073026;28;45252;-60
2021/07/29 01:53:56;;;;;;;;;3.25;2.75;;;;;18.47;49.08;100939.31;5080484;28;45384;-60
2021/07/29 01:56:21;;;;;;;;;3.50;2.25;;;;;18.44;49.34;100939.47;5080744;27;45445;-60
2021/07/29 01:58:47;;;;;;;;;5.00;3.00;;;;;18.41;49.31;100936.09;5099827;27;45289;-61
2021/07/29 02:01:20;;;;;;;;;4.00;2.50;;;;;18.37;49.57;100938.00;5080087;27;46345;-60
2021/07/29 02:03:45;;;;;;;;;5.50;2.25;;;;;18.38;49.47;100947.72;5067087;28;45385;-60
2021/07/29 02:06:10;;;;;;;;;4.75;3.50;;;;;18.31;49.76;100939.16;5080614;27;45516;-60
2021/07/29 02:08:36;;;;;;;;;3.75;3.25;;;;;18.32;49.54;100945.34;5080429;27;45512;-60
2021/07/29 02:11:04;;;;;;;;;5.25;4.75;;;;;18.28;49.69;100941.09;5080288;27;45224;-60
2021/07/29 02:13:29;;;;;;;;;3.00;3.00;;;;;18.26;49.70;100941.13;5080493;28;45830;-60
2021/07/29 02:15:55;;;;;;;;;3.25;3.25;;;;;18.26;49.78;100943.78;5080049;27;45170;-60
2021/07/29 02:18:20;;;;;;;;;3.50;3.50;;;;;18.23;49.67;100943.06;5080447;28;45159;-60
2021/07/29 02:20:45;;;;;;;;;2.75;1.00;;;;;18.21;50.06;100952.91;5080008;27;45776;-60
2021/07/29 02:23:11;;;;;;;;;4.00;3.75;;;;;18.09;50.35;100936.53;5080300;28;45367;-59
2021/07/29 02:25:36;;;;;;;;;6.00;5.00;;;;;18.12;49.97;100944.38;5080371;27;45291;-60
2021/07/29 02:28:02;;;;;;;;;5.75;3.00;;;;;18.10;50.21;100940.94;5080041;27;45479;-60
2021/07/29 02:30:27;;;;;;;;;3.50;3.50;;;;;18.10;50.24;100945.38;5079718;27;45561;-60
2021/07/29 02:32:52;;;;;;;;;4.75;2.75;;;;;18.04;50.07;100933.22;5080173;27;45337;-60
2021/07/29 02:35:18;;;;;;;;;5.25;4.00;;;;;18.05;50.05;100939.38;5080069;27;45374;-60
2021/07/29 02:37:43;;;;;;;;;2.00;2.00;;;;;18.02;50.44;100940.38;5080218;27;45336;-60
2021/07/29 02:40:09;;;;;;;;;4.25;4.00;;;;;18.01;50.28;100943.97;5079747;28;45333;-60
2021/07/29 02:42:34;;;;;;;;;5.50;5.00;;;;;17.99;50.45;100943.19;5082446;27;45459;-60
2021/07/29 02:44:59;;;;;;;;;4.00;4.00;;;;;17.96;50.39;100944.19;5083438;27;45406;-60
2021/07/29 02:47:25;;;;;;;;;4.25;3.00;;;;;17.96;50.29;100945.97;5083710;27;45283;-60
2021/07/29 02:49:50;;;;;;;;;6.50;4.00;;;;;17.96;50.46;100949.50;5071056;28;46282;-60
2021/07/29 02:52:15;;;;;;;;;3.75;3.00;;;;;17.95;50.38;100950.41;5081894;28;45984;-60
2021/07/29 02:54:41;;;;;;;;;2.50;2.00;;;;;17.93;50.52;100941.59;5083704;27;45480;-60
2021/07/29 02:57:06;;;;;;;;;4.50;3.00;;;;;17.94;50.59;100954.00;5077008;28;46453;-60
2021/07/29 02:59:32;;;;;;;;;3.50;2.00;;;;;17.91;50.60;100954.13;5074943;28;45428;-60
2021/07/29 03:01:57;;;;;;;;;4.00;2.00;;;;;17.92;50.54;100955.81;5083081;27;45337;-60
2021/07/29 03:04:24;;;;;;;;;3.00;3.00;;;;;17.91;50.50;100966.53;5083475;28;45225;-60
2021/07/29 03:06:49;;;;;;;;;4.00;3.50;;;;;17.87;50.91;100958.69;5083083;27;45240;-60
2021/07/29 03:09:14;;;;;;;;;2.50;2.50;;;;;17.86;50.58;100962.28;5083216;27;45436;-61
2021/07/29 03:11:40;;;;;;;;;4.25;3.25;;;;;17.87;50.79;100957.81;5082995;27;45234;-61
2021/07/29 03:14:05;;;;;;;;;3.50;2.75;;;;;17.85;50.86;100959.69;5083229;27;45318;-61
2021/07/29 03:16:30;;;;;;;;;3.00;3.00;;;;;17.86;50.58;100964.03;5082796;27;45224;-61
2021/07/29 03:18:56;;;;;;;;;3.75;3.75;;;;;17.83;50.90;100965.03;5083049;28;45502;-60
2021/07/29 03:21:22;;;;;;;;;3.75;3.75;;;;;17.83;50.79;100956.22;5081369;28;45782;-60
2021/07/29 03:23:47;;;;;;;;;3.50;3.50;;;;;17.79;50.94;100952.81;5083163;27;45298;-61
2021/07/29 03:26:12;;;;;;;;;3.00;2.25;;;;;17.78;50.70;100955.53;5082823;27;45318;-60
2021/07/29 03:28:38;;;;;;;;;3.50;3.50;;;;;17.73;50.89;100969.00;5082658;27;46442;-60
2021/07/29 03:31:03;;;;;;;;;3.25;3.00;;;;;17.71;51.16;100953.13;5082447;28;45326;-60
2021/07/29 03:33:28;;;;;;;;;6.75;4.00;;;;;17.67;51.47;100951.53;5081643;28;45232;-60
2021/07/29 03:35:53;;;;;;;;;4.75;4.00;;;;;17.64;51.22;100956.09;5081401;28;45269;-60
2021/07/29 03:38:19;;;;;;;;;3.50;3.25;;;;;17.59;51.20;100956.28;5082541;28;47178;-60
2021/07/29 03:40:45;;;;;;;;;4.25;2.00;;;;;17.63;51.21;100965.00;5082434;27;45399;-60
2021/07/29 03:43:10;;;;;;;;;5.00;3.50;;;;;17.61;51.24;100957.09;5115549;27;45325;-60
2021/07/29 03:45:40;;;;;;;;;7.00;4.25;;;;;17.60;51.41;100965.97;5082230;28;45305;-61
2021/07/29 03:48:06;;;;;;;;;6.00;4.00;;;;;17.57;51.54;100965.25;5082502;27;46265;-60
2021/07/29 03:50:31;;;;;;;;;4.50;3.25;;;;;17.56;51.47;100969.69;5080793;27;45415;-60
2021/07/29 03:52:57;;;;;;;;;5.00;4.50;;;;;17.54;51.61;100961.75;5082338;27;45308;-60
2021/07/29 03:55:23;;;;;;;;;4.00;4.00;;;;;17.53;51.42;100968.03;5082325;28;45304;-61
2021/07/29 03:57:48;;;;;;;;;4.00;4.00;;;;;17.53;51.51;100973.34;5072201;27;46326;-61
2021/07/29 04:00:14;;;;;;;;;4.75;4.00;;;;;17.49;51.49;100974.38;5079913;28;45357;-61
2021/07/29 04:02:40;;;;;;;;;3.50;3.25;;;;;17.49;51.75;100971.72;5082530;27;45356;-61
2021/07/29 04:05:06;;;;;;;;;6.25;4.00;;;;;17.50;51.87;100988.53;5082031;27;45260;-61
2021/07/29 04:07:33;;;;;;;;;2.00;2.00;;;;;17.49;51.95;100979.69;5082309;27;48186;-60
2021/07/29 04:09:58;;;;;;;;;5.75;3.00;;;;;17.47;51.48;100984.22;5082024;28;45421;-60
2021/07/29 04:12:23;;;;;;;;;5.00;3.75;;;;;17.46;51.93;100974.50;5081807;28;51055;-61
2021/07/29 04:14:49;;;;;;;;;4.25;2.75;;;;;17.45;51.71;100977.22;5081851;27;45521;-61
2021/07/29 04:17:16;;;;;;;;;3.00;2.75;;;;;17.45;51.86;100980.75;5082202;27;46143;-61
2021/07/29 04:19:41;;;;;;;;;6.50;5.25;;;;;17.42;52.06;100977.34;5081763;28;45292;-60
2021/07/29 04:22:07;;;;;;;;;3.50;3.00;;;;;17.44;51.93;100980.81;5080831;28;45398;-61
2021/07/29 04:24:33;;;;;;;;;5.25;4.50;;;;;17.43;52.10;100979.91;5081884;27;45481;-60
2021/07/29 04:27:00;;;;;;;;;3.00;3.00;;;;;17.44;51.93;100988.78;5081859;28;46096;-60
2021/07/29 04:29:26;;;;;;;;;4.50;4.25;;;;;17.41;52.43;100981.78;5081436;28;45399;-61
2021/07/29 04:31:53;;;;;;;;;4.75;4.00;;;;;17.35;52.37;100974.91;5081943;27;45309;-61
2021/07/29 04:34:18;;;;;;;;;5.00;5.00;;;;;17.41;52.60;100986.22;5081611;28;45315;-61
2021/07/29 04:36:45;;;;;;;;;2.00;2.00;;;;;17.40;52.33;100988.03;5080477;28;48039;-61
2021/07/29 04:39:10;;;;;;;;;2.00;2.00;;;;;17.37;52.36;100980.16;5081641;28;45313;-61
2021/07/29 04:41:43;;;;;;;;;4.00;3.50;;;;;17.37;52.46;100981.03;5081695;27;45546;-60
2021/07/29 04:44:11;;;;;;;;;5.00;4.00;;;;;17.35;52.60;100987.34;5068436;28;45279;-60
2021/07/29 04:46:38;;;;;;;;;4.00;4.00;;;;;17.37;52.45;100980.16;5081453;28;45591;-61
2021/07/29 04:49:04;;;;;;;;;5.25;3.25;;;;;17.38;52.34;100987.22;5075889;28;45344;-60
2021/07/29 04:51:31;;;;;;;;;6.25;3.75;;;;;17.38;52.67;100987.22;5074139;28;45377;-61
2021/07/29 04:53:57;;;;;;;;;4.50;3.25;;;;;17.38;52.18;100992.53;5081328;28;45454;-61
2021/07/29 04:56:22;;;;;;;;;3.50;3.25;;;;;17.36;52.56;100983.75;5081468;28;46412;-61
2021/07/29 04:58:49;;;;;;;;;7.00;5.50;;;;;17.37;52.42;100986.34;5068108;27;47652;-61
2021/07/29 05:01:15;;;;;;;;;6.00;5.00;;;;;17.32;52.50;100983.00;5081280;27;45256;-61
2021/07/29 05:03:40;;;;;;;;;6.00;4.25;;;;;17.37;52.39;100985.47;5080643;28;45337;-61
2021/07/29 05:06:05;;;;;;;;;7.50;6.25;;;;;17.35;52.46;100980.22;5081001;28;45208;-61
2021/07/29 05:08:31;;;;;;;;;4.00;4.00;;;;;17.35;52.55;100985.53;5081264;28;45259;-61
2021/07/29 05:10:56;;;;;;;;;5.00;5.00;;;;;17.35;52.43;100985.53;5081471;28;45373;-61
2021/07/29 05:13:22;;;;;;;;;5.25;4.00;;;;;17.38;52.47;100995.19;5081209;27;45635;-61
2021/07/29 05:15:47;;;;;;;;;5.00;4.00;;;;;17.42;52.57;100993.28;5079637;28;47045;-61
2021/07/29 05:18:12;;;;;;;;;5.50;5.00;;;;;17.41;52.68;100995.06;5080900;27;45394;-61
2021/07/29 05:20:38;;;;;;;;;7.25;5.00;;;;;17.42;52.81;101004.78;5081059;27;45748;-61
2021/07/29 05:23:03;;;;;;;;;6.00;5.00;;;;;17.40;52.91;100993.34;5080904;28;45565;-61
2021/07/29 05:25:29;;;;;;;;;6.00;5.00;;;;;17.36;52.88;100989.94;5081053;28;46590;-61
2021/07/29 05:27:54;;;;;;;;;6.50;5.00;;;;;17.39;52.99;100996.91;5079451;28;45328;-61
2021/07/29 05:30:20;;;;;;;;;8.00;5.50;;;;;17.41;52.76;100997.72;5080899;27;45394;-61
2021/07/29 05:32:46;;;;;;;;;7.50;3.75;;;;;17.40;52.83;101003.97;5080737;27;45359;-61
2021/07/29 05:35:11;;;;;;;;;5.00;3.50;;;;;17.39;52.94;101010.19;5079771;28;45253;-61
2021/07/29 05:37:38;;;;;;;;;5.00;4.50;;;;;17.38;52.94;101008.47;5080648;27;45296;-61
2021/07/29 05:40:08;;;;;;;;;3.75;3.75;;;;;17.42;53.08;101017.19;5080865;28;45267;-60
2021/07/29 05:42:34;;;;;;;;;6.25;6.25;;;;;17.41;53.01;101013.66;5080357;27;45549;-61
2021/07/29 05:45:00;;;;;;;;;7.25;5.25;;;;;17.43;52.88;101014.44;5080308;27;46300;-61
2021/07/29 05:47:26;;;;;;;;;4.75;4.75;;;;;17.35;53.05;101003.28;5080804;27;45397;-61
2021/07/29 05:49:51;;;;;;;;;10.50;6.75;;;;;17.42;53.25;101014.53;5068167;28;45563;-61
2021/07/29 05:52:16;;;;;;;;;4.50;4.25;;;;;17.43;53.23;101016.25;5079463;28;45395;-61
2021/07/29 05:54:42;;;;;;;;;3.25;3.25;;;;;17.44;53.06;101015.34;5080510;28;45409;-61
2021/07/29 05:57:07;;;;;;;;;8.75;7.00;;;;;17.45;53.07;101017.06;5075596;27;45313;-61
2021/07/29 05:59:32;;;;;;;;;4.00;4.00;;;;;17.46;53.31;101014.34;5072538;28;45332;-61
2021/07/29 06:01:58;;;;;;;;;6.25;5.50;;;;;17.43;53.41;101009.13;5080268;27;45271;-61
2021/07/29 06:04:23;;;;;;;;;5.50;5.00;;;;;17.43;53.42;101014.44;5080415;28;45526;-61
2021/07/29 06:06:48;;;;;;;;;5.00;4.00;;;;;17.44;53.29;101005.56;5080284;27;45292;-60
2021/07/29 06:09:14;;;;;;;;;5.75;5.25;;;;;17.44;53.42;101005.56;5080349;27;45267;-60
2021/07/29 06:11:39;;;;;;;;;5.75;4.50;;;;;17.42;53.48;101003.91;5080380;27;45227;-61
2021/07/29 06:14:04;;;;;;;;;4.25;4.00;;;;;17.38;53.73;101011.13;5079906;27;45954;-60
2021/07/29 06:16:30;;;;;;;;;8.00;5.00;;;;;17.40;53.58;101017.25;5079970;27;45421;-56
2021/07/29 06:19:06;;;;;;;;;7.25;5.50;;;;;17.42;53.49;101014.53;5080455;27;45481;-51
2021/07/29 06:21:36;;;;;;;;;4.75;4.25;;;;;17.41;53.79;101018.97;5080030;28;45348;-60
2021/07/29 06:24:02;;;;;;;;;5.25;5.25;;;;;17.44;53.54;101024.16;5079973;28;46244;-49
2021/07/29 06:26:27;;;;;;;;;5.75;3.50;;;;;17.47;53.50;101023.19;5080241;28;45240;-50
2021/07/29 06:28:54;;;;;;;;;5.50;3.50;;;;;17.49;53.59;101027.50;5080036;28;45245;-52
2021/07/29 06:31:20;;;;;;;;;3.75;3.75;;;;;17.50;53.24;101026.59;5079961;28;45272;-49
2021/07/29 06:33:45;;;;;;;;;6.00;6.00;;;;;17.52;53.47;101026.50;5079844;28;45300;-49
2021/07/29 06:36:11;;;;;;;;;7.50;7.50;;;;;17.54;53.65;101044.13;5080017;28;45351;-50
2021/07/29 06:38:40;;;;;;;;;4.75;4.00;;;;;17.55;53.54;101040.56;5080115;28;45810;-52
2021/07/29 06:41:06;;;;;;;;;5.00;3.25;;;;;17.55;53.85;101040.56;5061684;28;45485;-50
2021/07/29 06:43:31;;;;;;;;;5.75;5.50;;;;;17.58;53.58;101041.38;5061520;28;46244;-50
2021/07/29 06:46:05;;;;;;;;;5.25;4.00;;;;;17.58;53.70;101044.03;5079744;28;45200;-48
2021/07/29 06:48:30;;;;;;;;;7.25;4.00;;;;;17.59;53.34;101045.75;5060627;28;45340;-48
2021/07/29 06:50:56;;;;;;;;;5.75;5.75;;;;;17.57;53.76;101044.94;5067257;28;45385;-52
2021/07/29 06:53:21;;;;;;;;;2.25;1.50;;;;;17.57;53.66;101050.25;5079716;28;45976;-47
2021/07/29 06:55:46;;;;;;;;;4.00;4.00;;;;;17.56;53.62;101041.44;5079983;28;45166;-50
2021/07/29 06:58:12;;;;;;;;;5.50;5.50;;;;;17.55;53.90;101050.31;5065770;28;45423;-47
2021/07/29 07:00:37;;;;;;;;;4.50;3.00;;;;;17.58;53.66;101046.69;5079391;28;48051;-48
2021/07/29 07:03:02;;;;;;;;;5.50;3.75;;;;;17.57;54.08;101052.91;5061371;28;46195;-50
2021/07/29 07:05:28;;;;;;;;;6.50;5.00;;;;;17.54;53.80;101052.09;5079840;28;45415;-50
2021/07/29 07:07:53;;;;;;;;;5.00;4.25;;;;;17.59;54.15;101054.59;5079704;28;45450;-50
2021/07/29 07:10:18;;;;;;;;;6.00;4.25;;;;;17.63;53.94;101056.19;5079633;28;45544;-48
2021/07/29 07:12:44;;;;;;;;;8.00;4.75;;;;;17.65;54.10;101051.69;5061145;28;47072;-50
2021/07/29 07:15:10;;;;;;;;;5.50;5.00;;;;;17.73;53.91;101066.47;5079463;28;45213;-49
2021/07/29 07:17:35;;;;;;;;;6.25;4.00;;;;;17.74;53.93;101066.41;5079583;28;45301;-50
2021/07/29 07:20:01;;;;;;;;;4.00;3.00;;;;;17.79;53.76;101071.56;5079142;28;45286;-52
2021/07/29 07:22:27;;;;;;;;;4.25;2.25;;;;;17.84;53.70;101075.75;5079226;27;46161;-48
2021/07/29 07:24:53;;;;;;;;;5.50;4.00;;;;;17.88;53.85;101079.16;5079354;28;45468;-51
2021/07/29 07:27:18;;;;;;;;;6.50;5.50;;;;;17.90;53.88;101079.09;5079907;27;45332;-52
2021/07/29 07:29:44;;;;;;;;;3.75;3.25;;;;;17.94;53.92;101070.97;5082826;27;45288;-49
2021/07/29 07:32:09;;;;;;;;;3.50;3.50;;;;;18.01;53.67;101079.56;5081369;28;46990;-50
2021/07/29 07:34:35;;;;;;;;;6.75;3.50;;;;;18.05;53.70;101078.53;5082696;28;45314;-48
2021/07/29 07:37:00;;;;;;;;;7.50;5.75;;;;;18.09;53.76;101074.81;5115729;27;45420;-52
2021/07/29 07:39:25;;;;;;;;;5.75;3.00;;;;;18.13;53.58;101073.75;5115956;27;45325;-51
2021/07/29 07:41:52;;;;;;;;;4.75;4.75;;;;;18.22;53.80;101074.31;5080984;28;46596;-48
2021/07/29 07:44:17;;;;;;;;;2.75;2.00;;;;;18.27;53.68;101075.84;5082445;27;45231;-51
2021/07/29 07:46:42;;;;;;;;;4.25;4.25;;;;;18.31;53.71;101076.59;5082530;27;45311;-46
2021/07/29 07:49:08;;;;;;;;;3.50;3.50;;;;;18.37;53.38;101067.50;5076394;27;45275;-63
2021/07/29 07:51:33;;;;;;;;;4.25;4.25;;;;;18.38;53.55;101070.09;5075122;28;46228;-48
2021/07/29 07:53:59;;;;;;;;;4.25;3.75;;;;;18.42;53.31;101065.53;5098194;27;45964;-51
2021/07/29 07:56:24;;;;;;;;;5.75;5.00;;;;;18.45;53.25;101076.91;5082662;27;45204;-50
2021/07/29 07:58:50;;;;;;;;;6.00;6.00;;;;;18.49;53.55;101080.31;5068751;27;51765;-50
2021/07/29 08:01:15;;;;;;;;;5.50;4.25;;;;;18.54;53.11;101070.34;5082057;27;46337;-51
2021/07/29 08:03:41;;;;;;;;;6.25;4.75;;;;;18.58;53.22;101057.72;5080990;28;45688;-51
2021/07/29 08:06:06;;;;;;;;;5.25;4.00;;;;;18.66;53.62;101071.59;5098322;27;45282;-50
2021/07/29 08:08:31;;;;;;;;;6.75;5.50;;;;;18.72;53.41;101073.13;5082146;27;45276;-52
2021/07/29 08:10:57;;;;;;;;;5.75;5.75;;;;;18.75;53.50;101073.84;5082141;27;45375;-51
2021/07/29 08:13:22;;;;;;;;;7.25;4.25;;;;;18.80;53.39;101063.00;5081929;27;45288;-51
2021/07/29 08:15:48;;;;;;;;;5.00;3.75;;;;;18.84;53.36;101064.59;5080823;28;45346;-48
2021/07/29 08:18:13;;;;;;;;;4.75;4.75;;;;;18.90;53.16;101060.81;5082047;28;45541;-49
2021/07/29 08:20:44;;;;;;;;;7.50;3.75;;;;;18.93;53.16;101060.69;5081778;28;45312;-50
2021/07/29 08:23:10;;;;;;;;;2.00;2.00;;;;;18.92;52.90;101059.00;5068667;28;45242;-49
2021/07/29 08:25:35;;;;;;;;;4.00;4.00;;;;;18.95;52.75;101066.84;5080908;28;45283;-50
2021/07/29 08:28:01;;;;;;;;;4.00;4.00;;;;;18.96;52.92;101060.56;5081866;27;45283;-50
2021/07/29 08:30:26;;;;;;;;;6.00;4.50;;;;;18.99;53.13;101061.31;5081587;27;45505;-48
2021/07/29 08:32:52;;;;;;;;;6.00;5.50;;;;;19.05;52.64;101065.47;5081973;27;45341;-48
2021/07/29 08:35:17;;;;;;;;;5.50;4.50;;;;;19.06;52.54;101051.25;5081893;27;45428;-52
2021/07/29 08:37:46;;;;;;;;;7.75;4.50;;;;;19.11;52.22;101059.03;5081751;27;45395;-49
2021/07/29 08:40:16;;;;;;;;;4.00;3.50;;;;;19.10;52.18;101067.94;5081403;27;46192;-48
2021/07/29 08:42:42;;;;;;;;;3.25;3.25;;;;;19.12;51.89;101050.97;5081520;27;45307;-50
2021/07/29 08:45:08;;;;;;;;;4.25;2.00;;;;;19.18;51.85;101060.47;5081493;27;45388;-52
2021/07/29 08:47:33;;;;;;;;;4.75;3.75;;;;;19.21;52.05;101048.84;5081913;27;45303;-52
2021/07/29 08:50:06;;;;;;;;;5.25;4.25;;;;;19.23;51.79;101057.59;5067956;27;45960;-49
2021/07/29 08:52:33;;;;;;;;;3.75;2.00;;;;;19.29;51.87;101060.00;5069096;28;45473;-51
2021/07/29 08:54:59;;;;;;;;;4.50;4.00;;;;;19.31;51.55;101047.47;5081527;27;45389;-51
2021/07/29 08:57:30;;;;;;;;;5.75;4.00;;;;;19.35;51.30;101050.88;5073360;27;45448;-49
2021/07/29 08:59:56;;;;;;;;;2.75;2.75;;;;;19.41;50.91;101054.09;5076297;28;46353;-47
2021/07/29 09:02:23;;;;;;;;;3.75;3.00;;;;;19.40;51.22;101041.69;5081372;28;45222;-50
2021/07/29 09:05:10;;;;;;;;;3.25;2.00;;;;;19.51;51.22;101048.31;5081580;28;45275;-49
2021/07/29 09:07:37;;;;;;;;;3.50;3.50;;;;;19.53;50.98;101041.13;5079947;28;45450;-49
2021/07/29 09:10:17;;;;;;;;;5.25;4.50;;;;;19.64;50.94;101046.81;5080959;27;46187;-48
2021/07/29 09:12:42;;;;;;;;;2.75;2.75;;;;;19.70;50.83;101045.66;5096712;27;45867;-52
2021/07/29 09:15:18;;;;;;;;;4.50;4.25;;;;;19.72;50.96;101052.66;5081204;27;45474;-49
2021/07/29 09:17:44;;;;;;;;;2.75;2.75;;;;;19.78;50.87;101051.50;5081146;28;45394;-49
2021/07/29 09:20:17;;;;;;;;;2.00;2.00;;;;;19.85;50.91;101041.41;5080708;28;47405;-47
2021/07/29 09:22:43;;;;;;;;;2.00;2.00;;;;;19.92;50.21;101045.53;5080878;27;45416;-49
2021/07/29 09:25:10;;;;;;;;;4.00;2.00;;;;;20.00;49.82;101048.69;5081172;27;45335;-52
2021/07/29 09:27:39;;;;;;;;;2.75;1.50;;;;;20.03;50.23;101053.00;5080815;28;45407;-52
2021/07/29 09:30:30;;;;;;;;;4.00;3.00;;;;;20.11;49.64;101045.47;5080671;28;45325;-52
2021/07/29 09:33:25;;;;;;;;;3.00;2.00;;;;;20.21;49.74;101040.56;5068694;28;45673;-50
2021/07/29 09:35:53;;;;;;;;;5.50;4.25;;;;;20.23;49.57;101036.88;5067469;27;45587;-50
2021/07/29 09:38:32;;;;;;;;;2.50;2.50;;;;;20.37;49.55;101041.50;5080848;27;45406;-51
2021/07/29 09:41:00;;;;;;;;;3.50;3.50;;;;;20.41;49.14;101026.22;5067974;28;46261;-51
2021/07/29 09:43:30;;;;;;;;;3.75;2.00;;;;;20.48;49.61;101027.63;5080509;27;45295;-52
2021/07/29 09:45:58;;;;;;;;;5.75;3.00;;;;;20.58;49.21;101025.34;5079362;28;45319;-51
2021/07/29 09:48:24;;;;;;;;;2.00;2.00;;;;;20.62;49.08;101033.09;5080354;28;45497;-50
2021/07/29 09:50:52;;;;;;;;;2.75;2.00;;;;;20.70;49.42;101043.38;5065381;28;45360;-53
2021/07/29 09:53:17;;;;;;;;;3.00;3.00;;;;;20.79;48.96;101034.06;5080528;27;45263;-47
2021/07/29 09:55:42;;;;;;;;;3.00;3.00;;;;;20.90;48.49;101030.84;5080745;27;45633;-51
2021/07/29 09:58:08;;;;;;;;;3.25;2.50;;;;;20.94;48.72;101035.06;5067624;28;45208;-52
2021/07/29 10:00:35;;;;;;;;;4.00;4.00;;;;;21.01;49.20;101023.13;5080180;28;46086;-52
2021/07/29 10:03:07;;;;;;;;;4.75;2.00;;;;;21.08;48.58;101042.34;5080414;27;45265;-50
2021/07/29 10:05:57;;;;;;;;;4.00;3.00;;;;;21.16;48.47;101028.59;5080579;28;45253;-51
2021/07/29 10:08:37;;;;;;;;;4.25;3.00;;;;;21.21;48.60;101021.19;5080230;27;45353;-51
2021/07/29 10:11:11;;;;;;;;;2.00;1.00;;;;;21.30;48.36;101023.34;5080234;27;46330;-52
2021/07/29 10:13:38;;;;;;;;;2.75;2.75;;;;;21.37;48.05;101018.50;5080300;27;45214;-51
2021/07/29 10:16:04;;;;;;;;;3.00;3.00;;;;;21.42;48.43;101017.31;5080051;27;45427;-52
2021/07/29 10:18:52;;;;;;;;;2.00;1.00;;;;;21.50;47.36;101024.06;5080379;28;45449;-47
2021/07/29 10:21:21;;;;;;;;;1.00;1.00;;;;;21.54;47.84;101021.09;5079616;27;46131;-48
2021/07/29 10:23:58;;;;;;;;;3.75;3.25;;;;;21.56;47.38;101023.75;5080261;27;45393;-48
2021/07/29 10:26:24;;;;;;;;;3.00;3.00;;;;;21.58;47.21;101013.81;5066178;28;45417;-51
2021/07/29 10:28:50;;;;;;;;;2.00;2.00;;;;;21.65;47.22;101017.88;5079775;28;45238;-51
2021/07/29 10:31:17;;;;;;;;;3.00;3.00;;;;;21.71;47.60;101011.31;5078589;28;46744;-51
2021/07/29 10:33:45;;;;;;;;;3.75;3.75;;;;;21.77;47.31;101010.97;5080060;27;45381;-52
2021/07/29 10:36:43;;;;;;;;;2.75;2.75;;;;;21.81;47.54;101012.53;5080213;27;45319;-49
2021/07/29 10:39:08;;;;;;;;;2.00;2.00;;;;;21.87;47.31;101008.63;5079885;27;45234;-48
2021/07/29 10:41:34;;;;;;;;;2.00;1.00;;;;;21.94;47.12;101001.09;5079700;28;46160;-51
2021/07/29 10:43:59;;;;;;;;;3.00;3.00;;;;;21.95;46.85;101006.38;5079596;28;45210;-51
2021/07/29 10:47:02;;;;;;;;;2.00;2.00;;;;;22.07;46.71;101010.16;5080011;27;45403;-49
2021/07/29 10:49:52;;;;;;;;;2.50;2.50;;;;;22.14;46.91;101022.22;5062274;28;45615;-51
2021/07/29 10:52:17;;;;;;;;;1.25;1.25;;;;;22.23;46.40;101015.47;5068512;28;46914;-52
2021/07/29 10:54:44;;;;;;;;;2.00;1.75;;;;;22.32;46.42;101004.19;5071836;28;45396;-50
2021/07/29 10:57:12;;;;;;;;;3.25;2.50;;;;;22.44;46.62;101012.47;5074398;27;45278;-52
2021/07/29 10:59:38;;;;;;;;;2.50;2.50;;;;;22.52;46.13;101003.03;5072413;28;45616;-48
2021/07/29 11:02:26;;;;;;;;;2.75;2.00;;;;;22.58;46.26;101007.19;5079579;28;45383;-51
2021/07/29 11:04:58;;;;;;;;;3.75;3.75;;;;;22.66;46.14;101004.03;5083099;27;45465;-50
2021/07/29 11:07:24;;;;;;;;;3.25;3.25;;;;;22.82;46.15;101006.63;5083546;28;45338;-51
2021/07/29 11:10:04;;;;;;;;;2.00;2.00;;;;;22.91;46.15;101003.38;5083072;27;45298;-51
2021/07/29 11:12:30;;;;;;;;;5.00;5.00;;;;;23.06;45.91;101004.25;5082980;27;46155;-51
2021/07/29 11:14:58;;;;;;;;;4.50;3.00;;;;;23.16;45.55;100999.19;5082724;28;45402;-53
2021/07/29 11:17:25;;;;;;;;;3.75;3.00;;;;;23.23;45.38;101002.34;5081920;28;45252;-51
2021/07/29 11:19:50;;;;;;;;;2.00;2.00;;;;;23.26;45.25;101005.69;5082677;27;45199;-51
2021/07/29 11:22:16;;;;;;;;;3.00;2.50;;;;;23.28;44.93;101006.47;5081377;28;48358;-51
2021/07/29 11:24:41;;;;;;;;;2.50;2.00;;;;;23.29;45.03;100994.75;5076646;27;45181;-51